sensor_id;sensor_type;location;lat;lon;timestamp;temperature;humidity
74617;DHT22;63123;50.906;4.198;2023-07-24T00:00:42;21.00;68.40
74617;DHT22;63123;50.906;4.198;2023-07-24T00:03:08;21.00;68.40
74617;DHT22;63123;50.906;4.198;2023-07-24T00:05:34;21.00;68.40
74617;DHT22;63123;50.906;4.198;2023-07-24T00:07:59;21.00;68.50
74617;DHT22;63123;50.906;4.198;2023-07-24T00:10:25;21.00;68.50
74617;DHT22;63123;50.906;4.198;2023-07-24T00:12:50;21.00;68.50
74617;DHT22;63123;50.906;4.198;2023-07-24T00:15:16;21.00;68.40
74617;DHT22;63123;50.906;4.198;2023-07-24T00:17:42;21.00;68.50
74617;DHT22;63123;50.906;4.198;2023-07-24T00:20:08;21.00;69.00
74617;DHT22;63123;50.906;4.198;2023-07-24T00:22:33;21.00;68.50
74617;DHT22;63123;50.906;4.198;2023-07-24T00:24:59;21.00;68.50
74617;DHT22;63123;50.906;4.198;2023-07-24T00:27:24;21.00;68.50
74617;DHT22;63123;50.906;4.198;2023-07-24T00:29:50;21.00;68.50
74617;DHT22;63123;50.906;4.198;2023-07-24T00:32:16;21.00;68.50
74617;DHT22;63123;50.906;4.198;2023-07-24T00:34:41;21.00;68.50
74617;DHT22;63123;50.906;4.198;2023-07-24T00:37:07;21.00;68.50
74617;DHT22;63123;50.906;4.198;2023-07-24T00:39:32;21.00;68.50
74617;DHT22;63123;50.906;4.198;2023-07-24T00:41:58;21.00;68.50
74617;DHT22;63123;50.906;4.198;2023-07-24T00:44:23;21.00;68.50
74617;DHT22;63123;50.906;4.198;2023-07-24T00:46:49;21.00;68.50
74617;DHT22;63123;50.906;4.198;2023-07-24T00:49:15;21.00;68.50
74617;DHT22;63123;50.906;4.198;2023-07-24T00:51:41;21.00;68.50
74617;DHT22;63123;50.906;4.198;2023-07-24T00:54:07;21.00;68.50
74617;DHT22;63123;50.906;4.198;2023-07-24T00:56:33;21.00;68.60
74617;DHT22;63123;50.906;4.198;2023-07-24T00:59:00;21.00;68.50
74617;DHT22;63123;50.906;4.198;2023-07-24T01:01:26;21.00;68.60
74617;DHT22;63123;50.906;4.198;2023-07-24T01:03:52;21.00;68.60
74617;DHT22;63123;50.906;4.198;2023-07-24T01:06:18;21.00;68.60
74617;DHT22;63123;50.906;4.198;2023-07-24T01:08:44;21.00;68.60
74617;DHT22;63123;50.906;4.198;2023-07-24T01:11:11;21.00;68.60
74617;DHT22;63123;50.906;4.198;2023-07-24T01:13:43;21.00;68.60
74617;DHT22;63123;50.906;4.198;2023-07-24T01:16:14;21.00;68.50
74617;DHT22;63123;50.906;4.198;2023-07-24T01:18:39;21.00;68.60
74617;DHT22;63123;50.906;4.198;2023-07-24T01:21:09;21.00;68.60
74617;DHT22;63123;50.906;4.198;2023-07-24T01:23:58;21.00;68.60
74617;DHT22;63123;50.906;4.198;2023-07-24T01:26:25;21.00;68.50
74617;DHT22;63123;50.906;4.198;2023-07-24T01:28:51;21.00;68.60
74617;DHT22;63123;50.906;4.198;2023-07-24T01:31:17;21.00;68.60
74617;DHT22;63123;50.906;4.198;2023-07-24T01:33:43;21.00;68.60
74617;DHT22;63123;50.906;4.198;2023-07-24T01:36:10;21.00;68.70
74617;DHT22;63123;50.906;4.198;2023-07-24T01:38:36;21.00;68.70
74617;DHT22;63123;50.906;4.198;2023-07-24T01:41:03;21.00;68.70
74617;DHT22;63123;50.906;4.198;2023-07-24T01:43:30;21.00;68.60
74617;DHT22;63123;50.906;4.198;2023-07-24T01:45:56;21.00;68.60
74617;DHT22;63123;50.906;4.198;2023-07-24T01:48:22;21.00;68.60
74617;DHT22;63123;50.906;4.198;2023-07-24T01:50:47;21.00;68.60
74617;DHT22;63123;50.906;4.198;2023-07-24T01:53:13;21.00;68.70
74617;DHT22;63123;50.906;4.198;2023-07-24T01:55:38;21.00;68.70
74617;DHT22;63123;50.906;4.198;2023-07-24T01:58:04;21.00;68.70
74617;DHT22;63123;50.906;4.198;2023-07-24T02:00:30;21.00;68.70
74617;DHT22;63123;50.906;4.198;2023-07-24T02:02:55;21.00;68.70
74617;DHT22;63123;50.906;4.198;2023-07-24T02:05:22;21.00;68.70
74617;DHT22;63123;50.906;4.198;2023-07-24T02:07:48;21.00;68.70
74617;DHT22;63123;50.906;4.198;2023-07-24T02:10:14;21.00;68.70
74617;DHT22;63123;50.906;4.198;2023-07-24T02:12:39;21.00;68.70
74617;DHT22;63123;50.906;4.198;2023-07-24T02:15:06;21.00;68.60
74617;DHT22;63123;50.906;4.198;2023-07-24T02:17:31;21.00;68.70
74617;DHT22;63123;50.906;4.198;2023-07-24T02:19:57;21.00;68.70
74617;DHT22;63123;50.906;4.198;2023-07-24T02:22:23;21.00;68.70
74617;DHT22;63123;50.906;4.198;2023-07-24T02:24:49;21.00;68.70
74617;DHT22;63123;50.906;4.198;2023-07-24T02:27:25;21.00;68.70
74617;DHT22;63123;50.906;4.198;2023-07-24T02:29:51;21.00;68.70
74617;DHT22;63123;50.906;4.198;2023-07-24T02:32:16;21.00;68.70
74617;DHT22;63123;50.906;4.198;2023-07-24T02:34:42;21.00;68.70
74617;DHT22;63123;50.906;4.198;2023-07-24T02:37:07;21.00;68.70
74617;DHT22;63123;50.906;4.198;2023-07-24T02:39:33;21.00;68.70
74617;DHT22;63123;50.906;4.198;2023-07-24T02:41:58;21.00;68.70
74617;DHT22;63123;50.906;4.198;2023-07-24T02:44:24;21.00;68.70
74617;DHT22;63123;50.906;4.198;2023-07-24T02:46:49;21.00;68.70
74617;DHT22;63123;50.906;4.198;2023-07-24T02:49:15;21.00;68.70
74617;DHT22;63123;50.906;4.198;2023-07-24T02:51:40;21.00;68.70
74617;DHT22;63123;50.906;4.198;2023-07-24T02:54:06;21.00;68.70
74617;DHT22;63123;50.906;4.198;2023-07-24T02:56:32;21.00;68.70
74617;DHT22;63123;50.906;4.198;2023-07-24T02:58:57;21.00;68.70
74617;DHT22;63123;50.906;4.198;2023-07-24T03:01:23;21.00;68.70
74617;DHT22;63123;50.906;4.198;2023-07-24T03:03:48;21.00;68.80
74617;DHT22;63123;50.906;4.198;2023-07-24T03:06:15;21.00;68.80
74617;DHT22;63123;50.906;4.198;2023-07-24T03:08:40;21.00;68.80
74617;DHT22;63123;50.906;4.198;2023-07-24T03:11:08;21.00;68.80
74617;DHT22;63123;50.906;4.198;2023-07-24T03:13:33;21.00;68.70
74617;DHT22;63123;50.906;4.198;2023-07-24T03:15:59;21.00;68.70
74617;DHT22;63123;50.906;4.198;2023-07-24T03:18:25;21.00;68.80
74617;DHT22;63123;50.906;4.198;2023-07-24T03:20:50;21.00;68.80
74617;DHT22;63123;50.906;4.198;2023-07-24T03:23:16;21.00;68.80
74617;DHT22;63123;50.906;4.198;2023-07-24T03:25:42;21.00;68.80
74617;DHT22;63123;50.906;4.198;2023-07-24T03:28:07;21.00;68.80
74617;DHT22;63123;50.906;4.198;2023-07-24T03:30:33;21.00;68.80
74617;DHT22;63123;50.906;4.198;2023-07-24T03:32:59;21.00;68.80
74617;DHT22;63123;50.906;4.198;2023-07-24T03:35:24;21.00;68.80
74617;DHT22;63123;50.906;4.198;2023-07-24T03:37:50;21.00;68.80
74617;DHT22;63123;50.906;4.198;2023-07-24T03:40:15;21.00;68.80
74617;DHT22;63123;50.906;4.198;2023-07-24T03:42:41;21.00;68.80
74617;DHT22;63123;50.906;4.198;2023-07-24T03:45:07;21.00;68.80
74617;DHT22;63123;50.906;4.198;2023-07-24T03:47:33;21.00;68.80
74617;DHT22;63123;50.906;4.198;2023-07-24T03:49:59;21.00;68.80
74617;DHT22;63123;50.906;4.198;2023-07-24T03:52:24;21.00;68.80
74617;DHT22;63123;50.906;4.198;2023-07-24T03:54:51;21.00;68.80
74617;DHT22;63123;50.906;4.198;2023-07-24T03:57:17;21.00;68.80
74617;DHT22;63123;50.906;4.198;2023-07-24T03:59:42;21.00;68.80
74617;DHT22;63123;50.906;4.198;2023-07-24T04:02:08;21.00;68.80
74617;DHT22;63123;50.906;4.198;2023-07-24T04:04:34;21.00;68.80
74617;DHT22;63123;50.906;4.198;2023-07-24T04:06:59;21.00;68.80
74617;DHT22;63123;50.906;4.198;2023-07-24T04:09:25;21.00;68.80
74617;DHT22;63123;50.906;4.198;2023-07-24T04:11:50;21.00;68.90
74617;DHT22;63123;50.906;4.198;2023-07-24T04:14:16;21.00;68.80
74617;DHT22;63123;50.906;4.198;2023-07-24T04:16:42;21.00;68.80
74617;DHT22;63123;50.906;4.198;2023-07-24T04:19:07;21.00;68.80
74617;DHT22;63123;50.906;4.198;2023-07-24T04:21:34;21.00;68.80
74617;DHT22;63123;50.906;4.198;2023-07-24T04:23:59;21.00;68.80
74617;DHT22;63123;50.906;4.198;2023-07-24T04:26:25;21.00;68.90
74617;DHT22;63123;50.906;4.198;2023-07-24T04:28:50;21.00;68.90
74617;DHT22;63123;50.906;4.198;2023-07-24T04:31:16;21.00;68.80
74617;DHT22;63123;50.906;4.198;2023-07-24T04:33:42;21.00;68.90
74617;DHT22;63123;50.906;4.198;2023-07-24T04:36:07;21.00;68.80
74617;DHT22;63123;50.906;4.198;2023-07-24T04:38:33;21.00;68.90
74617;DHT22;63123;50.906;4.198;2023-07-24T04:41:00;21.00;68.90
74617;DHT22;63123;50.906;4.198;2023-07-24T04:43:27;21.00;68.90
74617;DHT22;63123;50.906;4.198;2023-07-24T04:45:52;21.00;68.80
74617;DHT22;63123;50.906;4.198;2023-07-24T04:48:18;21.00;68.90
74617;DHT22;63123;50.906;4.198;2023-07-24T04:50:44;21.00;68.90
74617;DHT22;63123;50.906;4.198;2023-07-24T04:53:09;21.00;68.90
74617;DHT22;63123;50.906;4.198;2023-07-24T04:55:35;21.00;68.90
74617;DHT22;63123;50.906;4.198;2023-07-24T04:58:00;21.00;68.90
74617;DHT22;63123;50.906;4.198;2023-07-24T05:00:26;21.00;68.90
74617;DHT22;63123;50.906;4.198;2023-07-24T05:02:52;21.00;68.90
74617;DHT22;63123;50.906;4.198;2023-07-24T05:05:17;21.00;68.90
74617;DHT22;63123;50.906;4.198;2023-07-24T05:07:43;21.00;68.90
74617;DHT22;63123;50.906;4.198;2023-07-24T05:10:09;21.00;68.90
74617;DHT22;63123;50.906;4.198;2023-07-24T05:12:34;21.00;68.90
74617;DHT22;63123;50.906;4.198;2023-07-24T05:15:00;21.00;68.90
74617;DHT22;63123;50.906;4.198;2023-07-24T05:17:26;21.00;68.90
74617;DHT22;63123;50.906;4.198;2023-07-24T05:19:51;21.00;68.90
74617;DHT22;63123;50.906;4.198;2023-07-24T05:22:17;21.00;68.90
74617;DHT22;63123;50.906;4.198;2023-07-24T05:24:42;21.00;68.90
74617;DHT22;63123;50.906;4.198;2023-07-24T05:27:08;21.00;68.90
74617;DHT22;63123;50.906;4.198;2023-07-24T05:29:33;21.00;68.90
74617;DHT22;63123;50.906;4.198;2023-07-24T05:31:59;21.00;69.00
74617;DHT22;63123;50.906;4.198;2023-07-24T05:34:25;21.00;69.00
74617;DHT22;63123;50.906;4.198;2023-07-24T05:36:51;21.00;69.00
74617;DHT22;63123;50.906;4.198;2023-07-24T05:39:17;21.00;69.00
74617;DHT22;63123;50.906;4.198;2023-07-24T05:41:42;21.00;69.00
74617;DHT22;63123;50.906;4.198;2023-07-24T05:44:08;21.00;69.00
74617;DHT22;63123;50.906;4.198;2023-07-24T05:46:34;21.00;69.00
74617;DHT22;63123;50.906;4.198;2023-07-24T05:48:59;21.00;69.00
74617;DHT22;63123;50.906;4.198;2023-07-24T05:51:27;21.00;68.90
74617;DHT22;63123;50.906;4.198;2023-07-24T05:53:53;21.00;69.00
74617;DHT22;63123;50.906;4.198;2023-07-24T05:56:19;21.00;69.00
74617;DHT22;63123;50.906;4.198;2023-07-24T05:58:44;21.00;69.00
74617;DHT22;63123;50.906;4.198;2023-07-24T06:01:10;21.00;68.90
74617;DHT22;63123;50.906;4.198;2023-07-24T06:03:36;21.00;68.90
74617;DHT22;63123;50.906;4.198;2023-07-24T06:06:02;21.00;68.90
74617;DHT22;63123;50.906;4.198;2023-07-24T06:08:28;21.00;68.90
74617;DHT22;63123;50.906;4.198;2023-07-24T06:10:54;21.00;68.90
74617;DHT22;63123;50.906;4.198;2023-07-24T06:13:19;21.00;68.90
74617;DHT22;63123;50.906;4.198;2023-07-24T06:15:49;21.00;68.90
74617;DHT22;63123;50.906;4.198;2023-07-24T06:18:14;21.00;68.90
74617;DHT22;63123;50.906;4.198;2023-07-24T06:20:40;21.00;68.90
74617;DHT22;63123;50.906;4.198;2023-07-24T06:23:06;21.00;68.90
74617;DHT22;63123;50.906;4.198;2023-07-24T06:25:31;21.00;68.90
74617;DHT22;63123;50.906;4.198;2023-07-24T06:27:57;21.00;68.90
74617;DHT22;63123;50.906;4.198;2023-07-24T06:30:23;21.00;68.90
74617;DHT22;63123;50.906;4.198;2023-07-24T06:32:49;21.00;68.90
74617;DHT22;63123;50.906;4.198;2023-07-24T06:35:14;21.00;69.00
74617;DHT22;63123;50.906;4.198;2023-07-24T06:37:40;21.00;68.90
74617;DHT22;63123;50.906;4.198;2023-07-24T06:40:07;21.00;68.90
74617;DHT22;63123;50.906;4.198;2023-07-24T06:42:32;21.00;68.90
74617;DHT22;63123;50.906;4.198;2023-07-24T06:44:58;21.00;68.90
74617;DHT22;63123;50.906;4.198;2023-07-24T06:47:24;21.00;69.00
74617;DHT22;63123;50.906;4.198;2023-07-24T06:49:50;21.00;68.90
74617;DHT22;63123;50.906;4.198;2023-07-24T06:52:16;21.00;68.90
74617;DHT22;63123;50.906;4.198;2023-07-24T06:54:41;21.00;69.00
74617;DHT22;63123;50.906;4.198;2023-07-24T06:57:07;21.00;68.90
74617;DHT22;63123;50.906;4.198;2023-07-24T06:59:33;21.00;68.90
74617;DHT22;63123;50.906;4.198;2023-07-24T07:01:58;21.00;68.90
74617;DHT22;63123;50.906;4.198;2023-07-24T07:04:24;21.00;68.90
74617;DHT22;63123;50.906;4.198;2023-07-24T07:06:49;21.00;68.90
74617;DHT22;63123;50.906;4.198;2023-07-24T07:09:15;21.00;68.90
74617;DHT22;63123;50.906;4.198;2023-07-24T07:11:41;21.00;69.00
74617;DHT22;63123;50.906;4.198;2023-07-24T07:14:08;21.00;68.90
74617;DHT22;63123;50.906;4.198;2023-07-24T07:16:34;21.00;68.90
74617;DHT22;63123;50.906;4.198;2023-07-24T07:19:00;21.00;68.90
74617;DHT22;63123;50.906;4.198;2023-07-24T07:21:25;21.00;68.90
74617;DHT22;63123;50.906;4.198;2023-07-24T07:23:51;21.00;68.90
74617;DHT22;63123;50.906;4.198;2023-07-24T07:26:17;21.00;68.90
74617;DHT22;63123;50.906;4.198;2023-07-24T07:28:42;21.00;68.90
74617;DHT22;63123;50.906;4.198;2023-07-24T07:31:10;21.00;69.10
74617;DHT22;63123;50.906;4.198;2023-07-24T07:33:36;21.00;69.10
74617;DHT22;63123;50.906;4.198;2023-07-24T07:36:01;21.00;69.10
74617;DHT22;63123;50.906;4.198;2023-07-24T07:38:27;21.00;69.10
74617;DHT22;63123;50.906;4.198;2023-07-24T07:40:53;21.00;69.20
74617;DHT22;63123;50.906;4.198;2023-07-24T07:43:19;21.00;69.20
74617;DHT22;63123;50.906;4.198;2023-07-24T07:45:44;21.00;69.10
74617;DHT22;63123;50.906;4.198;2023-07-24T07:48:10;21.00;69.70
74617;DHT22;63123;50.906;4.198;2023-07-24T07:50:35;21.00;69.10
74617;DHT22;63123;50.906;4.198;2023-07-24T07:53:01;21.00;69.20
74617;DHT22;63123;50.906;4.198;2023-07-24T07:55:26;21.00;69.10
74617;DHT22;63123;50.906;4.198;2023-07-24T07:57:52;21.00;69.20
74617;DHT22;63123;50.906;4.198;2023-07-24T08:00:19;21.00;69.10
74617;DHT22;63123;50.906;4.198;2023-07-24T08:02:44;21.00;69.10
74617;DHT22;63123;50.906;4.198;2023-07-24T08:05:10;21.00;69.20
74617;DHT22;63123;50.906;4.198;2023-07-24T08:07:36;21.10;69.40
74617;DHT22;63123;50.906;4.198;2023-07-24T08:10:03;21.00;69.30
74617;DHT22;63123;50.906;4.198;2023-07-24T08:12:29;21.00;69.20
74617;DHT22;63123;50.906;4.198;2023-07-24T08:14:55;21.00;69.10
74617;DHT22;63123;50.906;4.198;2023-07-24T08:17:21;21.00;69.20
74617;DHT22;63123;50.906;4.198;2023-07-24T08:19:47;21.00;69.20
74617;DHT22;63123;50.906;4.198;2023-07-24T08:22:12;21.00;69.20
74617;DHT22;63123;50.906;4.198;2023-07-24T08:24:38;21.00;69.20
74617;DHT22;63123;50.906;4.198;2023-07-24T08:27:04;21.00;69.20
74617;DHT22;63123;50.906;4.198;2023-07-24T08:29:29;21.00;69.30
74617;DHT22;63123;50.906;4.198;2023-07-24T08:31:55;21.00;69.20
74617;DHT22;63123;50.906;4.198;2023-07-24T08:34:21;21.00;69.20
74617;DHT22;63123;50.906;4.198;2023-07-24T08:36:46;21.00;69.20
74617;DHT22;63123;50.906;4.198;2023-07-24T08:39:12;21.00;69.20
74617;DHT22;63123;50.906;4.198;2023-07-24T08:41:37;21.00;69.20
74617;DHT22;63123;50.906;4.198;2023-07-24T08:44:08;21.00;69.30
74617;DHT22;63123;50.906;4.198;2023-07-24T08:46:38;21.00;69.30
74617;DHT22;63123;50.906;4.198;2023-07-24T08:49:12;21.00;69.40
74617;DHT22;63123;50.906;4.198;2023-07-24T08:51:43;21.00;69.20
74617;DHT22;63123;50.906;4.198;2023-07-24T08:54:09;21.10;69.40
74617;DHT22;63123;50.906;4.198;2023-07-24T08:56:38;21.00;69.40
74617;DHT22;63123;50.906;4.198;2023-07-24T08:59:07;21.00;69.40
74617;DHT22;63123;50.906;4.198;2023-07-24T09:01:32;21.00;69.40
74617;DHT22;63123;50.906;4.198;2023-07-24T09:03:58;21.10;69.40
74617;DHT22;63123;50.906;4.198;2023-07-24T09:06:26;21.00;69.30
74617;DHT22;63123;50.906;4.198;2023-07-24T09:08:53;21.00;69.30
74617;DHT22;63123;50.906;4.198;2023-07-24T09:11:19;21.00;69.30
74617;DHT22;63123;50.906;4.198;2023-07-24T09:13:44;21.00;69.30
74617;DHT22;63123;50.906;4.198;2023-07-24T09:16:24;21.00;69.70
74617;DHT22;63123;50.906;4.198;2023-07-24T09:18:51;21.00;69.40
74617;DHT22;63123;50.906;4.198;2023-07-24T09:21:27;21.00;69.30
74617;DHT22;63123;50.906;4.198;2023-07-24T09:23:53;21.00;69.30
74617;DHT22;63123;50.906;4.198;2023-07-24T09:26:18;21.10;69.30
74617;DHT22;63123;50.906;4.198;2023-07-24T09:28:54;21.00;69.30
74617;DHT22;63123;50.906;4.198;2023-07-24T09:31:19;21.10;69.30
74617;DHT22;63123;50.906;4.198;2023-07-24T09:33:45;21.10;69.30
74617;DHT22;63123;50.906;4.198;2023-07-24T09:36:12;21.00;69.30
74617;DHT22;63123;50.906;4.198;2023-07-24T09:38:39;21.00;69.20
74617;DHT22;63123;50.906;4.198;2023-07-24T09:41:05;21.00;69.20
74617;DHT22;63123;50.906;4.198;2023-07-24T09:43:32;21.00;69.20
74617;DHT22;63123;50.906;4.198;2023-07-24T09:45:58;21.00;69.30
74617;DHT22;63123;50.906;4.198;2023-07-24T09:48:26;21.00;69.30
74617;DHT22;63123;50.906;4.198;2023-07-24T09:50:54;21.00;69.30
74617;DHT22;63123;50.906;4.198;2023-07-24T09:54:05;21.00;69.20
74617;DHT22;63123;50.906;4.198;2023-07-24T09:56:10;21.00;69.30
74617;DHT22;63123;50.906;4.198;2023-07-24T09:58:38;21.00;69.30
74617;DHT22;63123;50.906;4.198;2023-07-24T10:01:08;21.00;69.30
74617;DHT22;63123;50.906;4.198;2023-07-24T10:03:35;21.00;69.20
74617;DHT22;63123;50.906;4.198;2023-07-24T10:06:02;21.10;69.30
74617;DHT22;63123;50.906;4.198;2023-07-24T10:08:27;21.00;69.20
74617;DHT22;63123;50.906;4.198;2023-07-24T10:10:53;21.10;69.20
74617;DHT22;63123;50.906;4.198;2023-07-24T10:13:20;21.10;69.30
74617;DHT22;63123;50.906;4.198;2023-07-24T10:15:47;21.10;69.30
74617;DHT22;63123;50.906;4.198;2023-07-24T10:18:15;21.00;69.20
74617;DHT22;63123;50.906;4.198;2023-07-24T10:20:41;21.00;69.80
74617;DHT22;63123;50.906;4.198;2023-07-24T10:23:11;21.10;69.20
74617;DHT22;63123;50.906;4.198;2023-07-24T10:25:39;21.10;69.30
74617;DHT22;63123;50.906;4.198;2023-07-24T10:28:09;21.00;69.30
74617;DHT22;63123;50.906;4.198;2023-07-24T10:30:37;21.00;69.30
74617;DHT22;63123;50.906;4.198;2023-07-24T10:33:07;21.00;69.20
74617;DHT22;63123;50.906;4.198;2023-07-24T10:35:37;21.00;69.30
74617;DHT22;63123;50.906;4.198;2023-07-24T10:38:03;21.10;69.40
74617;DHT22;63123;50.906;4.198;2023-07-24T10:40:29;21.10;69.40
74617;DHT22;63123;50.906;4.198;2023-07-24T10:43:00;21.00;69.40
74617;DHT22;63123;50.906;4.198;2023-07-24T10:45:26;21.00;69.30
74617;DHT22;63123;50.906;4.198;2023-07-24T10:47:51;21.10;69.40
74617;DHT22;63123;50.906;4.198;2023-07-24T10:50:19;21.00;69.40
74617;DHT22;63123;50.906;4.198;2023-07-24T10:52:44;21.00;69.30
74617;DHT22;63123;50.906;4.198;2023-07-24T10:55:10;21.10;69.50
74617;DHT22;63123;50.906;4.198;2023-07-24T10:57:35;21.10;69.40
74617;DHT22;63123;50.906;4.198;2023-07-24T11:00:01;21.00;69.40
74617;DHT22;63123;50.906;4.198;2023-07-24T11:02:27;21.10;69.50
74617;DHT22;63123;50.906;4.198;2023-07-24T11:04:52;21.00;69.40
74617;DHT22;63123;50.906;4.198;2023-07-24T11:07:19;21.10;69.50
74617;DHT22;63123;50.906;4.198;2023-07-24T11:09:44;21.00;69.50
74617;DHT22;63123;50.906;4.198;2023-07-24T11:12:12;21.10;69.50
74617;DHT22;63123;50.906;4.198;2023-07-24T11:14:48;21.10;69.50
74617;DHT22;63123;50.906;4.198;2023-07-24T11:17:14;21.10;69.60
74617;DHT22;63123;50.906;4.198;2023-07-24T11:19:39;21.10;69.50
74617;DHT22;63123;50.906;4.198;2023-07-24T11:22:05;21.10;69.40
74617;DHT22;63123;50.906;4.198;2023-07-24T11:24:32;21.10;69.50
74617;DHT22;63123;50.906;4.198;2023-07-24T11:26:57;21.10;69.50
74617;DHT22;63123;50.906;4.198;2023-07-24T11:29:23;21.10;69.50
74617;DHT22;63123;50.906;4.198;2023-07-24T11:31:55;21.10;69.50
74617;DHT22;63123;50.906;4.198;2023-07-24T11:34:22;21.10;69.60
74617;DHT22;63123;50.906;4.198;2023-07-24T11:36:48;21.10;69.60
74617;DHT22;63123;50.906;4.198;2023-07-24T11:39:22;21.00;69.50
74617;DHT22;63123;50.906;4.198;2023-07-24T11:41:47;21.00;69.50
74617;DHT22;63123;50.906;4.198;2023-07-24T11:44:13;21.10;69.50
74617;DHT22;63123;50.906;4.198;2023-07-24T11:46:42;21.10;69.60
74617;DHT22;63123;50.906;4.198;2023-07-24T11:49:08;21.00;69.40
74617;DHT22;63123;50.906;4.198;2023-07-24T11:51:37;21.10;69.50
74617;DHT22;63123;50.906;4.198;2023-07-24T11:54:11;21.10;69.50
74617;DHT22;63123;50.906;4.198;2023-07-24T11:56:37;21.10;69.50
74617;DHT22;63123;50.906;4.198;2023-07-24T11:59:13;21.10;69.40
74617;DHT22;63123;50.906;4.198;2023-07-24T12:01:38;21.10;69.50
74617;DHT22;63123;50.906;4.198;2023-07-24T12:04:04;21.10;69.50
74617;DHT22;63123;50.906;4.198;2023-07-24T12:06:33;21.10;69.50
74617;DHT22;63123;50.906;4.198;2023-07-24T12:09:03;21.10;69.50
74617;DHT22;63123;50.906;4.198;2023-07-24T12:11:31;21.10;70.10
74617;DHT22;63123;50.906;4.198;2023-07-24T12:13:56;21.10;69.50
74617;DHT22;63123;50.906;4.198;2023-07-24T12:16:22;21.10;69.50
74617;DHT22;63123;50.906;4.198;2023-07-24T12:18:48;21.10;69.50
74617;DHT22;63123;50.906;4.198;2023-07-24T12:21:13;21.10;69.50
74617;DHT22;63123;50.906;4.198;2023-07-24T12:23:39;21.10;69.50
74617;DHT22;63123;50.906;4.198;2023-07-24T12:26:04;21.10;69.50
74617;DHT22;63123;50.906;4.198;2023-07-24T12:28:30;21.10;69.40
74617;DHT22;63123;50.906;4.198;2023-07-24T12:30:56;21.10;69.40
74617;DHT22;63123;50.906;4.198;2023-07-24T12:33:21;21.10;69.50
74617;DHT22;63123;50.906;4.198;2023-07-24T12:35:50;21.00;69.30
74617;DHT22;63123;50.906;4.198;2023-07-24T12:38:16;21.10;69.40
74617;DHT22;63123;50.906;4.198;2023-07-24T12:40:42;21.00;69.40
74617;DHT22;63123;50.906;4.198;2023-07-24T12:43:07;21.10;69.40
74617;DHT22;63123;50.906;4.198;2023-07-24T12:45:33;21.10;69.40
74617;DHT22;63123;50.906;4.198;2023-07-24T12:47:59;21.00;69.30
74617;DHT22;63123;50.906;4.198;2023-07-24T12:50:25;21.10;69.30
74617;DHT22;63123;50.906;4.198;2023-07-24T12:52:50;21.10;69.30
74617;DHT22;63123;50.906;4.198;2023-07-24T12:55:16;21.10;69.30
74617;DHT22;63123;50.906;4.198;2023-07-24T12:57:41;21.10;69.30
74617;DHT22;63123;50.906;4.198;2023-07-24T13:00:08;21.10;69.30
74617;DHT22;63123;50.906;4.198;2023-07-24T13:02:34;21.10;69.20
74617;DHT22;63123;50.906;4.198;2023-07-24T13:05:00;21.00;69.20
74617;DHT22;63123;50.906;4.198;2023-07-24T13:07:26;21.10;69.20
74617;DHT22;63123;50.906;4.198;2023-07-24T13:09:51;21.10;69.20
74617;DHT22;63123;50.906;4.198;2023-07-24T13:12:17;21.10;69.20
74617;DHT22;63123;50.906;4.198;2023-07-24T13:14:42;21.10;69.20
74617;DHT22;63123;50.906;4.198;2023-07-24T13:17:09;21.10;69.20
74617;DHT22;63123;50.906;4.198;2023-07-24T13:19:34;21.10;69.70
74617;DHT22;63123;50.906;4.198;2023-07-24T13:22:00;21.10;69.20
74617;DHT22;63123;50.906;4.198;2023-07-24T13:24:26;21.10;69.20
74617;DHT22;63123;50.906;4.198;2023-07-24T13:26:51;21.10;69.20
74617;DHT22;63123;50.906;4.198;2023-07-24T13:29:17;21.10;69.20
74617;DHT22;63123;50.906;4.198;2023-07-24T13:31:42;21.10;69.20
74617;DHT22;63123;50.906;4.198;2023-07-24T13:34:08;21.10;69.20
74617;DHT22;63123;50.906;4.198;2023-07-24T13:36:34;21.10;69.20
74617;DHT22;63123;50.906;4.198;2023-07-24T13:38:59;21.10;69.20
74617;DHT22;63123;50.906;4.198;2023-07-24T13:41:25;21.10;69.20
74617;DHT22;63123;50.906;4.198;2023-07-24T13:43:50;21.10;69.10
74617;DHT22;63123;50.906;4.198;2023-07-24T13:46:16;21.10;69.20
74617;DHT22;63123;50.906;4.198;2023-07-24T13:48:42;21.10;69.10
74617;DHT22;63123;50.906;4.198;2023-07-24T13:51:07;21.10;69.20
74617;DHT22;63123;50.906;4.198;2023-07-24T13:53:33;21.10;69.20
74617;DHT22;63123;50.906;4.198;2023-07-24T13:55:58;21.10;69.10
74617;DHT22;63123;50.906;4.198;2023-07-24T13:58:24;21.10;69.10
74617;DHT22;63123;50.906;4.198;2023-07-24T14:00:50;21.10;69.10
74617;DHT22;63123;50.906;4.198;2023-07-24T14:03:15;21.10;69.10
74617;DHT22;63123;50.906;4.198;2023-07-24T14:05:41;21.10;69.10
74617;DHT22;63123;50.906;4.198;2023-07-24T14:08:07;21.10;69.10
74617;DHT22;63123;50.906;4.198;2023-07-24T14:10:32;21.10;69.10
74617;DHT22;63123;50.906;4.198;2023-07-24T14:12:58;21.10;69.10
74617;DHT22;63123;50.906;4.198;2023-07-24T14:15:24;21.10;69.10
74617;DHT22;63123;50.906;4.198;2023-07-24T14:17:49;21.10;69.10
74617;DHT22;63123;50.906;4.198;2023-07-24T14:20:15;21.10;69.10
74617;DHT22;63123;50.906;4.198;2023-07-24T14:22:41;21.10;69.00
74617;DHT22;63123;50.906;4.198;2023-07-24T14:25:06;21.10;68.90
74617;DHT22;63123;50.906;4.198;2023-07-24T14:27:32;21.10;68.90
74617;DHT22;63123;50.906;4.198;2023-07-24T14:29:58;21.10;68.80
74617;DHT22;63123;50.906;4.198;2023-07-24T14:32:24;21.10;68.70
74617;DHT22;63123;50.906;4.198;2023-07-24T14:34:51;21.10;68.90
74617;DHT22;63123;50.906;4.198;2023-07-24T14:37:18;21.10;68.70
74617;DHT22;63123;50.906;4.198;2023-07-24T14:39:43;21.10;68.80
74617;DHT22;63123;50.906;4.198;2023-07-24T14:42:10;21.10;68.70
74617;DHT22;63123;50.906;4.198;2023-07-24T14:44:36;21.10;68.80
74617;DHT22;63123;50.906;4.198;2023-07-24T14:47:01;21.10;68.90
74617;DHT22;63123;50.906;4.198;2023-07-24T14:49:27;21.10;68.90
74617;DHT22;63123;50.906;4.198;2023-07-24T14:51:53;21.10;68.80
74617;DHT22;63123;50.906;4.198;2023-07-24T14:54:18;21.10;68.90
74617;DHT22;63123;50.906;4.198;2023-07-24T14:56:44;21.10;68.90
74617;DHT22;63123;50.906;4.198;2023-07-24T14:59:09;21.10;69.00
74617;DHT22;63123;50.906;4.198;2023-07-24T15:01:35;21.10;69.00
74617;DHT22;63123;50.906;4.198;2023-07-24T15:04:01;21.10;69.00
74617;DHT22;63123;50.906;4.198;2023-07-24T15:06:26;21.00;68.90
74617;DHT22;63123;50.906;4.198;2023-07-24T15:08:52;21.10;69.00
74617;DHT22;63123;50.906;4.198;2023-07-24T15:11:24;21.10;69.00
74617;DHT22;63123;50.906;4.198;2023-07-24T15:13:51;21.10;69.00
74617;DHT22;63123;50.906;4.198;2023-07-24T15:16:17;21.10;69.00
74617;DHT22;63123;50.906;4.198;2023-07-24T15:18:42;21.10;69.00
74617;DHT22;63123;50.906;4.198;2023-07-24T15:21:09;21.10;69.00
74617;DHT22;63123;50.906;4.198;2023-07-24T15:23:35;21.10;69.00